Time;durP1;ratioP1;P1;durP2;ratioP2;P2;SDS_P1;SDS_P2;PMS_P1;PMS_P2;Temp;Humidity;BMP_temperature;BMP_pressure;BME280_temperature;BME280_humidity;BME280_pressure;Samples;Min_cycle;Max_cycle;Signal;HPM_P1;HPM_P2
2022/04/12 00:04:20;;;;;;;4.72;4.25;;;;;;;;;;758050;78;26198;-76
2022/04/12 00:05:23;;;;;;;6.85;5.75;;;;;;;;;;757937;78;26326;-75
2022/04/12 00:06:28;;;;;;;5.90;5.05;;;;;;;;;;756927;78;26249;-76
2022/04/12 00:07:31;;;;;;;5.33;4.92;;;;;;;;;;757935;78;26245;-75
2022/04/12 00:08:34;;;;;;;5.92;5.37;;;;;;;;;;757998;78;26245;-75
2022/04/12 03:00:50;;;;;;;5.78;5.22;;;;;;;;;;762988;78;26240;-75
2022/04/12 03:01:53;;;;;;;7.80;5.90;;;;;;;;;;790096;74;26294;-75
2022/04/12 03:02:56;;;;;;;6.80;5.87;;;;;;;;;;790205;75;26227;-75
2022/04/12 03:03:59;;;;;;;7.30;6.08;;;;;;;;;;789993;75;26304;-75
2022/04/12 03:05:04;;;;;;;7.08;6.37;;;;;;;;;;787023;75;26325;-74
2022/04/12 03:06:07;;;;;;;10.53;6.28;;;;;;;;;;790430;74;26234;-76
2022/04/12 03:07:10;;;;;;;7.37;6.00;;;;;;;;;;787360;75;26663;-76
2022/04/12 03:08:13;;;;;;;9.10;6.53;;;;;;;;;;784785;75;26652;-75
2022/04/12 04:01:18;;;;;;;9.55;7.72;;;;;;;;;;758607;78;26145;-76
2022/04/12 04:02:22;;;;;;;9.33;8.33;;;;;;;;;;758557;78;26260;-76
2022/04/12 04:03:25;;;;;;;8.08;7.22;;;;;;;;;;758561;78;26264;-77
2022/04/12 04:04:28;;;;;;;9.90;7.47;;;;;;;;;;758526;78;26265;-75
2022/04/12 04:05:32;;;;;;;10.13;8.65;;;;;;;;;;757544;78;26268;-75
2022/04/12 04:06:36;;;;;;;9.45;7.78;;;;;;;;;;758548;78;26272;-73
2022/04/12 04:07:39;;;;;;;10.68;8.43;;;;;;;;;;758579;78;26264;-73
2022/04/12 04:12:28;;;;;;;15.08;11.38;;;;;;;;;;788472;75;26775;-73
2022/04/12 04:13:36;;;;;;;14.50;11.40;;;;;;;;;;758493;78;26301;-73
2022/04/12 04:14:36;;;;;;;10.23;9.20;;;;;;;;;;750204;78;26272;-73
2022/04/12 04:15:41;;;;;;;12.35;9.33;;;;;;;;;;764671;77;26247;-73
2022/04/12 04:16:44;;;;;;;10.70;8.48;;;;;;;;;;764686;77;26293;-73
2022/04/12 04:17:47;;;;;;;11.78;9.45;;;;;;;;;;778525;76;26250;-74
2022/04/12 04:20:33;;;;;;;12.70;8.63;;;;;;;;;;764549;77;26336;-73
2022/04/12 04:21:39;;;;;;;12.60;9.15;;;;;;;;;;755137;77;26281;-77
2022/04/12 04:22:42;;;;;;;11.03;9.23;;;;;;;;;;762728;78;26304;-73
2022/04/12 04:23:46;;;;;;;11.20;9.30;;;;;;;;;;756935;77;24635;-74
2022/04/12 04:24:53;;;;;;;11.18;8.85;;;;;;;12.42;100.00;123554.15;754011;78;26746;-74
2022/04/12 04:25:56;;;;;;;12.43;9.00;;;;;;;;;;759555;77;26691;-72
2022/04/12 04:26:59;;;;;;;12.30;9.75;;;;;;;;;;761167;78;26271;-74
2022/04/12 04:31:52;;;;;;;11.33;9.55;;;;;;;;;;756441;78;26196;-74
2022/04/12 04:32:55;;;;;;;12.80;9.15;;;;;;;;;;744523;78;26274;-75
2022/04/12 04:41:36;;;;;;;20.27;12.90;;;;;;;;;;757201;77;26624;-74
2022/04/12 04:42:42;;;;;;;16.37;12.05;;;;;;;;;;760451;77;26289;-76
2022/04/12 04:43:46;;;;;;;13.32;11.20;;;;;;;;;;770471;76;26678;-74
2022/04/12 04:44:54;;;;;;;14.00;10.20;;;;;;;;;;776498;76;26321;-75
2022/04/12 04:46:00;;;;;;;12.80;10.55;;;;;;;;;;776329;76;26398;-74
2022/04/12 04:47:04;;;;;;;10.82;9.80;;;;;;;;;;775581;76;26262;-75
2022/04/12 04:51:31;;;;;;;11.00;9.88;;;;;;;;;;791755;74;26721;-76
2022/04/12 04:52:40;;;;;;;12.47;10.28;;;;;;;;;;791658;74;26240;-76
2022/04/12 04:53:49;;;;;;;10.88;9.33;;;;;;;;;;790696;74;26283;-75
2022/04/12 04:54:47;;;;;;;9.70;8.75;;;;;;;;;;792586;74;26356;-76
2022/04/12 04:55:50;;;;;;;10.35;9.33;;;;;;;;;;788571;75;26674;-73
2022/04/12 04:56:53;;;;;;;10.70;9.60;;;;;;;;;;788825;75;26705;-74
2022/04/12 05:01:11;;;;;;;11.65;8.88;;;;;;;;;;774969;76;26202;-74
2022/04/12 05:02:15;;;;;;;12.30;9.53;;;;;;;;;;767733;76;26260;-74
2022/04/12 05:03:18;;;;;;;11.15;9.25;;;;;;;;;;768699;76;26257;-77
2022/04/12 05:04:20;;;;;;;11.90;8.98;;;;;;;;;;762217;76;26322;-74
2022/04/12 05:05:23;;;;;;;11.22;9.55;;;;;;;;;;760482;77;26319;-73
2022/04/12 05:06:26;;;;;;;11.73;9.90;;;;;;;;;;770534;76;26715;-73
2022/04/12 05:07:29;;;;;;;12.73;11.05;;;;;;;;;;767811;76;26803;-75
2022/04/12 05:09:46;;;;;;;18.42;13.50;;;;;;;;;;751922;78;26708;-75
2022/04/12 05:20:45;;;;;;;11.63;10.35;;;;;;;;;;759849;76;26225;-71
2022/04/12 05:21:48;;;;;;;13.85;10.20;;;;;;;;;;765159;76;26674;-71
2022/04/12 05:26:08;;;;;;;15.55;10.68;;;;;;;;;;778564;75;26194;-72
2022/04/12 05:27:11;;;;;;;12.60;11.30;;;;;;;;;;749588;78;26710;-72
2022/04/12 05:32:52;;;;;;;13.22;10.68;;;;;;;;;;763780;73;26317;-72
2022/04/12 05:33:55;;;;;;;12.05;10.65;;;;;;;;;;760873;76;26243;-72
2022/04/12 05:34:58;;;;;;;12.63;11.30;;;;;;;;;;767218;76;26703;-72
2022/04/12 05:36:01;;;;;;;11.48;10.05;;;;;;;;;;773013;77;26260;-73
2022/04/12 05:37:04;;;;;;;13.50;9.90;;;;;;;;;;768801;76;26250;-73
2022/04/12 05:41:29;;;;;;;12.20;9.38;;;;;;;;;;791316;74;26204;-72
2022/04/12 05:42:32;;;;;;;11.12;9.30;;;;;;;;;;789334;75;26236;-73
2022/04/12 05:43:35;;;;;;;11.03;9.88;;;;;;;;;;788706;75;26719;-71
2022/04/12 05:44:37;;;;;;;10.88;8.83;;;;;;;;;;787760;75;26808;-71
2022/04/12 05:45:40;;;;;;;13.25;9.13;;;;;;;;;;784833;74;26395;-71
2022/04/12 05:46:43;;;;;;;11.18;9.60;;;;;;;;;;784661;75;26251;-73
2022/04/12 05:50:40;;;;;;;12.63;11.00;;;;;;;;;;763317;77;26277;-73
2022/04/12 05:51:43;;;;;;;13.50;11.85;;;;;;;;;;770636;76;26304;-68
2022/04/12 05:52:46;;;;;;;17.40;12.58;;;;;;;;;;755671;77;26316;-69
2022/04/12 05:53:49;;;;;;;12.53;11.22;;;;;;;;;;772862;77;26256;-68
2022/04/12 05:54:52;;;;;;;12.28;10.82;;;;;;;;;;772834;75;26671;-68
2022/04/12 05:55:55;;;;;;;14.10;11.10;;;;;;;;;;759376;78;26253;-70
2022/04/12 05:56:58;;;;;;;14.07;11.15;;;;;;;;;;773007;77;26258;-70
2022/04/12 06:01:54;;;;;;;15.58;12.13;;;;;;;;;;755664;78;26646;-68
2022/04/12 06:02:57;;;;;;;14.83;12.13;;;;;;;;;;755516;78;26324;-69
2022/04/12 06:04:00;;;;;;;14.68;12.40;;;;;;;;;;755493;78;26257;-69
2022/04/12 06:05:03;;;;;;;12.93;11.25;;;;;;;;;;755498;78;26264;-69
2022/04/12 06:06:06;;;;;;;15.80;12.63;;;;;;;;;;755592;78;26757;-68
2022/04/12 06:07:09;;;;;;;20.95;12.78;;;;;;;;;;755544;78;26775;-69
2022/04/12 06:10:42;;;;;;;15.28;12.58;;;;;;;;;;755943;78;26186;-70
2022/04/12 06:11:45;;;;;;;12.28;10.25;;;;;;;;;;756452;78;26313;-70
2022/04/12 06:12:49;;;;;;;8.88;8.00;;;;;;;;;;756345;78;26346;-69
2022/04/12 06:13:53;;;;;;;9.70;8.80;;;;;;;;;;756261;78;26259;-69
2022/04/12 06:14:56;;;;;;;11.30;10.10;;;;;;;;;;756275;78;26255;-69
2022/04/12 06:15:59;;;;;;;13.20;9.85;;;;;;;;;;756280;78;26267;-69
2022/04/12 06:17:01;;;;;;;14.38;10.20;;;;;;;;;;756375;78;26760;-69
2022/04/12 06:20:06;;;;;;;10.50;9.25;;;;;;;;;;756314;78;26689;-70
2022/04/12 06:21:09;;;;;;;11.18;9.25;;;;;;;;;;756237;78;26713;-69
2022/04/12 06:22:12;;;;;;;13.85;10.80;;;;;;;;;;756375;78;26249;-68
2022/04/12 06:23:17;;;;;;;13.70;12.13;;;;;;;;;;756214;78;26256;-70
2022/04/12 06:24:20;;;;;;;13.00;11.63;;;;;;;;;;756217;78;26257;-69
2022/04/12 06:25:23;;;;;;;16.42;12.47;;;;;;;;;;756342;78;26357;-69
2022/04/12 06:26:25;;;;;;;14.63;12.75;;;;;;;;;;756293;78;26315;-69
2022/04/12 06:27:35;;;;;;;15.78;12.63;;;;;;;;;;756371;78;26697;-68
2022/04/12 06:34:35;;;;;;;17.32;13.22;;;;;;;;;;756555;78;26617;-68
2022/04/12 06:35:38;;;;;;;12.65;11.33;;;;;;;;;;747865;79;26250;-68
2022/04/12 06:36:41;;;;;;;14.30;10.13;;;;;;;;;;747761;79;26260;-69
2022/04/12 06:41:13;;;;;;;7.58;6.85;;;;;;;;;;751780;79;26258;-69
2022/04/12 06:42:17;;;;;;;7.15;6.45;;;;;;;;;;770017;76;26688;-69
2022/04/12 06:43:19;;;;;;;8.55;6.37;;;;;;;;;;774784;76;26265;-70
2022/04/12 06:44:22;;;;;;;6.97;6.37;;;;;;;;;;774603;75;26269;-69
2022/04/12 06:45:25;;;;;;;7.20;6.50;;;;;;;;;;770633;75;26262;-71
2022/04/12 06:46:28;;;;;;;8.98;7.65;;;;;;;;;;770757;74;26706;-68
2022/04/12 06:51:46;;;;;;;13.48;11.65;;;;;;;;;;761973;77;26279;-68
2022/04/12 06:52:50;;;;;;;8.85;7.95;;;;;;;;;;763726;77;26469;-68
2022/04/12 06:53:53;;;;;;;9.65;8.08;;;;;;;;;;755158;78;26370;-69
2022/04/12 06:54:58;;;;;;;10.72;9.60;;;;;;;;;;748129;78;26286;-68
2022/04/12 06:56:01;;;;;;;11.10;9.95;;;;;;;;;;757384;77;26272;-68
2022/04/12 06:57:04;;;;;;;11.35;9.28;;;;;;;;;;762816;77;26702;-70
2022/04/12 06:59:40;;;;;;;8.18;7.40;;;;;;;;;;767019;74;26205;-69
2022/04/12 07:02:28;;;;;;;7.67;6.00;;;;;;;;;;775666;74;26360;-69
2022/04/12 07:03:31;;;;;;;6.45;5.55;;;;;;;;;;768316;75;26303;-69
2022/04/12 07:04:34;;;;;;;7.37;5.78;;;;;;;;;;767761;76;26311;-69
2022/04/12 07:05:37;;;;;;;6.37;5.85;;;;;;;;;;769117;76;26266;-69
2022/04/12 07:06:40;;;;;;;6.22;5.62;;;;;;;;;;763162;75;26323;-70
2022/04/12 07:11:00;;;;;;;5.87;5.33;;;;;;;;;;789392;74;26207;-69
2022/04/12 07:12:04;;;;;;;7.20;5.80;;;;;;;;;;792149;74;26717;-69
2022/04/12 07:13:07;;;;;;;5.55;5.05;;;;;;;;;;791453;74;26259;-69
2022/04/12 07:14:11;;;;;;;4.80;4.40;;;;;;;;;;778114;74;26367;-69
2022/04/12 07:15:14;;;;;;;5.37;4.95;;;;;;;;;;776808;75;26307;-69
2022/04/12 07:16:18;;;;;;;5.30;4.80;;;;;;;;;;779785;75;26251;-69
2022/04/12 07:19:06;;;;;;;5.42;4.90;;;;;;;;;;781281;74;26770;-68
2022/04/12 07:20:11;;;;;;;6.62;6.00;;;;;;;;;;784922;75;26673;-68
2022/04/12 07:21:21;;;;;;;6.03;5.50;;;;;;;;;;783826;75;26653;-69
2022/04/12 07:22:20;;;;;;;5.30;4.80;;;;;;;;;;786948;75;26650;-71
2022/04/12 07:23:23;;;;;;;5.17;4.67;;;;;;;;;;783119;75;26245;-69
2022/04/12 07:24:27;;;;;;;6.35;5.03;;;;;;;;;;784279;75;26295;-70
2022/04/12 07:25:30;;;;;;;5.55;5.05;;;;;;;;;;768153;77;26261;-70
2022/04/12 07:26:33;;;;;;;4.85;4.45;;;;;;;;;;771341;77;26319;-68
2022/04/12 07:29:32;;;;;;;4.92;4.40;;;;;;;;;;781911;75;26667;-69
2022/04/12 07:30:35;;;;;;;5.17;4.72;;;;;;;;;;785613;74;26301;-68
2022/04/12 07:31:39;;;;;;;5.90;4.95;;;;;;;;;;776075;74;26326;-69
2022/04/12 07:32:42;;;;;;;5.10;4.60;;;;;;;;;;776905;75;26365;-68
2022/04/12 07:33:50;;;;;;;5.12;4.62;;;;;;;;;;773682;75;26316;-70
2022/04/12 07:34:53;;;;;;;5.15;4.65;;;;;;;;;;774353;76;26253;-69
2022/04/12 07:35:56;;;;;;;5.10;4.55;;;;;;;;;;773939;76;26683;-68
2022/04/12 07:36:59;;;;;;;4.87;4.33;;;;;;;;;;786702;75;26686;-68
2022/04/12 07:39:54;;;;;;;5.05;4.37;;;;;;;;;;766735;74;26288;-69
2022/04/12 07:40:57;;;;;;;4.63;4.23;;;;;;;;;;761846;76;26257;-69
2022/04/12 07:42:00;;;;;;;4.87;4.40;;;;;;;;;;764168;76;26587;-68
2022/04/12 07:43:04;;;;;;;5.20;4.70;;;;;;;;;;761485;76;26961;-69
2022/04/12 07:44:07;;;;;;;5.20;4.70;;;;;;;;;;760735;76;26323;-68
2022/04/12 07:45:10;;;;;;;5.12;4.30;;;;;;;;;;762166;76;26256;-68
2022/04/12 07:46:14;;;;;;;5.37;4.08;;;;;;;;;;760971;76;26253;-69
2022/04/12 07:48:55;;;;;;;4.42;4.03;;;;;;;;;;764942;74;27070;-69
2022/04/12 07:49:58;;;;;;;4.80;4.00;;;;;;;;;;763365;76;26253;-69
2022/04/12 07:51:01;;;;;;;4.67;4.28;;;;;;;;;;762563;76;26646;-68
2022/04/12 07:52:04;;;;;;;4.30;3.87;;;;;;;;;;763854;76;26701;-69
2022/04/12 07:53:07;;;;;;;4.62;4.22;;;;;;;;;;770880;76;26413;-68
2022/04/12 07:54:10;;;;;;;4.05;3.65;;;;;;;;;;771170;75;26263;-70
2022/04/12 07:55:13;;;;;;;4.15;3.80;;;;;;;;;;762060;76;26328;-68
2022/04/12 07:56:17;;;;;;;4.53;4.12;;;;;;;;;;760625;75;26303;-70
2022/04/12 08:00:24;;;;;;;3.98;3.40;;;;;;;;;;775765;76;26639;-70
2022/04/12 08:01:27;;;;;;;5.53;3.90;;;;;;;;;;773749;75;26719;-68
2022/04/12 08:02:30;;;;;;;3.90;3.30;;;;;;;;;;770876;76;26301;-68
2022/04/12 08:03:34;;;;;;;4.67;4.15;;;;;;;;;;784922;74;26255;-69
2022/04/12 08:04:41;;;;;;;24.25;16.37;;;;;;;;;;779329;75;26693;-70
2022/04/12 08:05:42;;;;;;;12.67;10.27;;;;;;;;;;776706;75;26769;-68
2022/04/12 08:06:46;;;;;;;5.80;5.30;;;;;;;;;;780705;73;26856;-70
2022/04/12 08:11:17;;;;;;;4.20;3.90;;;;;;;;;;765804;76;26725;-69
2022/04/12 08:12:20;;;;;;;5.35;3.98;;;;;;;;;;765540;76;26354;-69
2022/04/12 08:13:23;;;;;;;4.58;4.17;;;;;;;;;;763271;76;26276;-69
2022/04/12 08:14:26;;;;;;;7.58;4.30;;;;;;;;;;770251;76;26306;-69
2022/04/12 08:15:28;;;;;;;4.12;3.70;;;;;;;;;;764247;76;26275;-70
2022/04/12 08:19:53;;;;;;;4.37;3.98;;;;;;;;;;709604;81;26295;-68
2022/04/12 08:20:56;;;;;;;5.17;4.53;;;;;;;;;;707914;81;26370;-68
2022/04/12 08:22:01;;;;;;;6.30;4.70;;;;;;;;;;705028;82;26591;-69
2022/04/12 08:23:04;;;;;;;5.10;4.70;;;;;;;;;;716500;77;26864;-68
2022/04/12 08:24:08;;;;;;;4.47;4.10;;;;;;;;;;761939;76;26606;-69
2022/04/12 08:25:11;;;;;;;4.87;4.37;;;;;;;;;;759160;77;26507;-70
2022/04/12 08:26:15;;;;;;;4.63;4.23;;;;;;;;;;755785;76;26758;-68
2022/04/12 08:27:18;;;;;;;4.20;3.80;;;;;;;;;;754718;76;26522;-68
2022/04/12 08:28:21;;;;;;;4.93;4.13;;;;;;;;;;759302;76;26465;-70
2022/04/12 08:29:25;;;;;;;5.77;4.57;;;;;;;;;;757979;77;26554;-68
2022/04/12 08:32:15;;;;;;;4.40;4.10;;;;;;;;;;746009;78;26920;-70
2022/04/12 08:33:18;;;;;;;5.53;4.63;;;;;;;;;;745631;78;26658;-68
2022/04/12 08:34:21;;;;;;;4.53;4.13;;;;;;;;;;746350;78;26487;-68
2022/04/12 08:35:24;;;;;;;4.53;4.23;;;;;;;;;;727973;79;26716;-69
2022/04/12 08:36:27;;;;;;;7.50;4.70;;;;;;;;;;744773;78;26575;-70
2022/04/12 08:40:45;;;;;;;6.57;6.00;;;;;;;;;;758760;76;26557;-69
2022/04/12 08:41:48;;;;;;;7.23;6.50;;;;;;;;;;757273;76;26825;-69
2022/04/12 08:42:57;;;;;;;5.47;5.07;;;;;;;;;;754382;76;26616;-70
2022/04/12 08:43:59;;;;;;;6.53;5.30;;;;;;;;;;768759;76;26315;-69
2022/04/12 08:45:03;;;;;;;5.43;4.87;;;;;;;;;;762742;76;26731;-69
2022/04/12 08:46:06;;;;;;;5.20;4.70;;;;;;;;;;770037;76;26503;-69
2022/04/12 08:48:41;;;;;;;4.50;4.10;;;;;;;;;;772375;73;26456;-69
2022/04/12 08:49:45;;;;;;;5.17;4.77;;;;;;;;;;778169;75;26473;-69
2022/04/12 08:50:48;;;;;;;5.40;4.80;;;;;;;;;;771270;76;26389;-69
2022/04/12 08:51:51;;;;;;;5.63;5.10;;;;;;;;;;780221;74;26649;-68
2022/04/12 08:52:54;;;;;;;5.30;4.80;;;;;;;;;;772600;74;26900;-68
2022/04/12 08:53:58;;;;;;;5.23;4.50;;;;;;;;;;784467;75;26469;-70
2022/04/12 08:55:01;;;;;;;5.10;4.67;;;;;;;;;;772775;75;26421;-70
2022/04/12 08:56:04;;;;;;;5.87;5.03;;;;;;;;;;778832;74;26417;-70
2022/04/12 09:00:02;;;;;;;4.93;4.53;;;;;;;;;;770525;76;26679;-69
2022/04/12 09:01:05;;;;;;;5.47;4.73;;;;;;;;;;759592;77;26546;-69
2022/04/12 09:02:08;;;;;;;5.40;4.57;;;;;;;;;;762672;76;26491;-69
2022/04/12 09:03:15;;;;;;;5.33;4.73;;;;;;;;;;760471;77;26505;-69
2022/04/12 09:04:18;;;;;;;4.93;4.53;;;;;;;;;;759603;76;26503;-69
2022/04/12 09:05:21;;;;;;;6.87;4.83;;;;;;;;;;757213;76;26655;-69
2022/04/12 09:06:24;;;;;;;5.33;4.70;;;;;;;;;;762841;76;26601;-68
2022/04/12 09:10:25;;;;;;;5.10;4.60;;;;;;;;;;789011;75;26440;-69
2022/04/12 09:11:32;;;;;;;5.93;4.60;;;;;;;;;;788999;74;27009;-69
2022/04/12 09:12:34;;;;;;;5.27;4.83;;;;;;;;;;791667;75;26386;-71
2022/04/12 09:13:37;;;;;;;4.70;4.30;;;;;;;;;;789161;75;27944;-69
2022/04/12 09:14:44;;;;;;;4.70;4.30;;;;;;;;;;789324;75;26331;-69
2022/04/12 09:15:49;;;;;;;4.57;4.17;;;;;;;;;;789142;75;26897;-69
2022/04/12 09:18:43;;;;;;;4.03;3.63;;;;;;;;;;786971;73;26236;-68
2022/04/12 09:19:49;;;;;;;4.17;3.77;;;;;;;;;;770984;76;26789;-68
2022/04/12 09:20:53;;;;;;;4.10;3.80;;;;;;;;;;772166;76;26432;-69
2022/04/12 09:21:56;;;;;;;4.67;4.23;;;;;;;;;;770998;77;26580;-69
2022/04/12 09:23:00;;;;;;;4.63;3.93;;;;;;;;;;756239;78;26586;-68
2022/04/12 09:24:04;;;;;;;4.80;4.27;;;;;;;;;;778936;75;26603;-69
2022/04/12 09:25:16;;;;;;;4.40;3.90;;;;;;;;;;777466;75;26732;-71
2022/04/12 09:28:05;;;;;;;4.43;4.13;;;;;;;;;;787733;72;26311;-69
2022/04/12 09:29:10;;;;;;;4.53;3.70;;;;;;;;;;787704;73;26467;-70
2022/04/12 09:30:14;;;;;;;4.07;3.73;;;;;;;;;;782082;73;26545;-69
2022/04/12 09:31:20;;;;;;;4.20;3.90;;;;;;;;;;794070;73;26458;-69
2022/04/12 09:32:23;;;;;;;4.47;4.07;;;;;;;;;;787017;74;26509;-68
2022/04/12 09:33:37;;;;;;;4.10;3.80;;;;;;;;;;794491;73;26526;-68
2022/04/12 09:34:41;;;;;;;4.63;4.10;;;;;;;;;;801406;74;26534;-68
2022/04/12 09:35:46;;;;;;;4.47;3.80;;;;;;;;;;796754;73;26483;-69
2022/04/12 09:38:32;;;;;;;5.73;4.40;;;;;;;;;;788844;73;26787;-70
2022/04/12 09:39:35;;;;;;;4.57;4.17;;;;;;;;;;763260;76;27053;-70
2022/04/12 09:40:38;;;;;;;4.47;4.17;;;;;;;;;;763552;76;26628;-71
2022/04/12 09:41:41;;;;;;;3.83;3.40;;;;;;;;;;763484;76;26602;-70
2022/04/12 09:42:51;;;;;;;4.90;3.63;;;;;;;;;;771109;76;26384;-70
2022/04/12 09:43:55;;;;;;;4.03;3.73;;;;;;;;;;766115;76;26869;-71
2022/04/12 09:45:05;;;;;;;3.70;3.50;;;;;;;;;;759284;76;26677;-69
2022/04/12 09:46:13;;;;;;;3.60;3.30;;;;;;;;;;759895;76;26936;-69
2022/04/12 09:49:13;;;;;;;4.53;4.20;;;;;;;;;;759453;78;26347;-71
2022/04/12 09:50:16;;;;;;;4.17;3.87;;;;;;;;;;743821;79;26525;-69
2022/04/12 09:51:23;;;;;;;6.53;5.93;;;;;;;;;;740749;79;26566;-69
2022/04/12 09:52:28;;;;;;;7.07;6.37;;;;;;;;;;763181;76;26260;-69
2022/04/12 09:55:07;;;;;;;4.53;4.13;;;;;;;;;;761861;77;26427;-69
2022/04/12 09:56:13;;;;;;;3.73;3.43;;;;;;;;;;757035;76;26573;-69
2022/04/12 09:58:50;;;;;;;4.67;4.27;;;;;;;;;;775646;76;26636;-70
2022/04/12 09:59:56;;;;;;;3.93;3.63;;;;;;;;;;776144;76;26548;-69
2022/04/12 10:01:02;;;;;;;3.70;3.13;;;;;;;;;;776936;76;26480;-69
2022/04/12 10:02:07;;;;;;;3.23;2.97;;;;;;;;;;773932;76;26442;-69
2022/04/12 10:03:19;;;;;;;3.50;3.20;;;;;;;;;;772888;75;26521;-70
2022/04/12 10:04:24;;;;;;;3.73;3.17;;;;;;;;;;775804;76;26935;-69
2022/04/12 10:05:31;;;;;;;3.10;2.90;;;;;;;;;;771402;76;26888;-69
2022/04/12 10:11:11;;;;;;;3.30;3.10;;;;;;;;;;744211;77;26578;-70
2022/04/12 10:12:17;;;;;;;3.40;3.10;;;;;;;;;;758133;78;26582;-70
2022/04/12 10:19:41;;;;;;;3.70;3.40;;;;;;;;;;776874;73;26394;-69
2022/04/12 10:20:48;;;;;;;3.70;3.40;;;;;;;;;;761326;76;26452;-70
2022/04/12 10:21:50;;;;;;;3.33;3.13;;;;;;;;;;765887;76;26658;-69
2022/04/12 10:22:54;;;;;;;3.27;2.97;;;;;;;;;;763542;76;26898;-67
2022/04/12 10:23:58;;;;;;;3.43;3.13;;;;;;;;;;765279;76;26534;-70
2022/04/12 10:25:02;;;;;;;2.70;2.50;;;;;;;;;;763637;76;26865;-69
2022/04/12 11:09:46;;;;;;;2.80;2.60;;;;;;;;;;762515;77;26765;-72
2022/04/12 11:10:54;;;;;;;2.60;2.40;;;;;;;;;;757890;77;26451;-70
2022/04/12 11:12:01;;;;;;;3.30;3.00;;;;;;;;;;764789;76;26917;-72
2022/04/12 11:13:09;;;;;;;3.93;2.60;;;;;;;;;;762808;76;26573;-71
2022/04/12 11:14:19;;;;;;;2.63;2.43;;;;;;;;;;759216;77;26680;-72
2022/04/12 11:15:29;;;;;;;2.40;2.30;;;;;;;;;;758572;77;26498;-71
2022/04/12 11:25:11;;;;;;;2.70;2.50;;;;;;;;;;771668;76;26523;-73
2022/04/12 11:31:09;;;;;;;3.93;2.90;;;;;;;;;;759745;76;26455;-72
2022/04/12 11:32:14;;;;;;;2.93;2.70;;;;;;;;;;743284;78;26855;-72
2022/04/12 11:33:17;;;;;;;2.90;2.70;;;;;;;;;;753160;78;26580;-73
2022/04/12 11:34:21;;;;;;;2.47;2.37;;;;;;;;;;755206;77;26500;-72
2022/04/12 11:35:24;;;;;;;2.90;2.70;;;;;;;;;;757375;77;26573;-71
2022/04/12 11:39:44;;;;;;;6.40;5.17;;;;;;;;;;781840;75;26533;-72
2022/04/12 11:40:47;;;;;;;5.03;4.53;;;;;;;;;;759784;76;26607;-72
2022/04/12 11:41:50;;;;;;;4.00;3.60;;;;;;;;;;782225;75;26557;-72
2022/04/12 11:42:54;;;;;;;3.00;2.80;;;;;;;;;;785383;75;26663;-72
2022/04/12 11:44:07;;;;;;;2.80;2.63;;;;;;;;;;781314;74;26475;-72
2022/04/12 11:45:11;;;;;;;3.40;3.10;;;;;;;;;;778813;75;26605;-72
2022/04/12 11:53:04;;;;;;;4.17;3.77;;;;;;;;;;773462;75;26949;-72
2022/04/12 11:54:22;;;;;;;2.93;2.73;;;;;;;;;;776152;75;27104;-72
2022/04/12 11:55:26;;;;;;;3.20;3.00;;;;;;;;;;750648;78;26280;-70
2022/04/12 11:59:36;;;;;;;2.70;2.50;;;;;;;;;;750473;78;26544;-72
2022/04/12 12:00:39;;;;;;;2.47;2.37;;;;;;;;;;773812;75;27022;-72
2022/04/12 12:01:43;;;;;;;2.33;2.10;;;;;;;;;;753090;77;26933;-73
2022/04/12 12:02:48;;;;;;;3.50;2.20;;;;;;;;;;758285;77;26400;-71
2022/04/12 12:03:56;;;;;;;2.37;2.27;;;;;;;;;;766849;73;26962;-72
2022/04/12 12:05:04;;;;;;;2.93;2.23;;;;;;;;;;787528;74;26571;-73
2022/04/12 12:09:33;;;;;;;2.83;2.67;;;;;;;;;;790978;73;26317;-72
2022/04/12 12:10:38;;;;;;;2.53;2.33;;;;;;;;;;792795;73;26406;-72
2022/04/12 12:11:41;;;;;;;4.10;2.60;;;;;;;;;;792191;73;26599;-72
2022/04/12 12:12:48;;;;;;;2.47;2.30;;;;;;;;;;792069;73;26448;-72
2022/04/12 12:13:58;;;;;;;2.70;2.50;;;;;;;;;;787850;73;26477;-72
2022/04/12 12:15:23;;;;;;;2.40;2.20;;;;;;;;;;787264;73;26240;-72
2022/04/12 12:19:33;;;;;;;2.80;2.50;;;;;;;;;;777936;75;26390;-73
2022/04/12 12:20:43;;;;;;;2.70;2.37;;;;;;;;;;774133;75;26474;-72
2022/04/12 12:21:45;;;;;;;2.70;2.50;;;;;;;;;;775287;75;26820;-71
2022/04/12 12:22:59;;;;;;;3.20;2.90;;;;;;;;;;775540;75;26908;-72
2022/04/12 12:24:05;;;;;;;3.10;2.80;;;;;;;;;;777232;75;26381;-72
2022/04/12 12:25:18;;;;;;;2.80;2.60;;;;;;;;;;774975;76;26421;-73
2022/04/12 12:30:40;;;;;;;2.63;2.43;;;;;;;;;;813211;72;26471;-72
2022/04/12 12:31:44;;;;;;;2.20;2.00;;;;;;;;;;807444;72;26276;-72
2022/04/12 12:32:48;;;;;;;3.77;2.80;;;;;;;;;;808172;72;26832;-73
2022/04/12 12:42:18;;;;;;;2.60;2.40;;;;;;;;;;757213;77;26548;-72
2022/04/12 12:43:22;;;;;;;2.27;2.17;;;;;;;;;;762745;77;26834;-72
2022/04/12 12:44:28;;;;;;;2.50;2.40;;;;;;;;;;760755;77;26547;-72
2022/04/12 12:49:40;;;;;;;2.20;2.10;;;;;;;;;;776806;75;26425;-73
2022/04/12 12:50:44;;;;;;;2.73;2.50;;;;;;;;;;761953;77;26432;-72
2022/04/12 12:51:47;;;;;;;4.10;3.80;;;;;;;;;;777696;75;26547;-73
2022/04/12 12:53:02;;;;;;;7.07;5.87;;;;;;;;;;778180;75;26256;-71
2022/04/12 12:54:09;;;;;;;4.67;4.27;;;;;;;;;;760865;76;26562;-73
2022/04/12 12:59:39;;;;;;;2.70;2.50;;;;;;;;;;733017;80;26474;-73
2022/04/12 13:00:42;;;;;;;2.43;2.30;;;;;;;;;;741305;80;26919;-72
2022/04/12 13:01:46;;;;;;;3.10;2.80;;;;;;;;;;730190;81;26873;-73
2022/04/12 13:02:50;;;;;;;2.43;2.33;;;;;;;;;;719057;81;26526;-72
2022/04/12 13:03:55;;;;;;;3.27;2.97;;;;;;;;;;737025;80;26913;-73
2022/04/12 13:04:59;;;;;;;3.53;2.80;;;;;;;;;;736527;80;26461;-73
2022/04/12 13:09:21;;;;;;;2.20;2.10;;;;;;;;;;724222;81;26395;-72
2022/04/12 13:10:28;;;;;;;3.70;2.80;;;;;;;;;;730536;80;26497;-72
2022/04/12 13:11:33;;;;;;;4.00;3.60;;;;;;;;;;737610;80;26438;-72
2022/04/12 13:12:38;;;;;;;4.23;3.60;;;;;;;;;;739258;79;26767;-72
2022/04/12 13:13:42;;;;;;;3.77;3.47;;;;;;;;;;738340;78;26969;-72
2022/04/12 13:14:46;;;;;;;2.83;2.70;;;;;;;;;;733975;80;26582;-71
2022/04/12 13:19:05;;;;;;;2.30;2.20;;;;;;;;;;735749;80;26493;-73
2022/04/12 13:20:13;;;;;;;3.03;2.83;;;;;;;;;;738612;80;26289;-72
2022/04/12 13:28:51;;;;;;;3.27;3.07;;;;;;;;;;787505;74;26452;-72
2022/04/12 13:29:55;;;;;;;3.00;2.80;;;;;;;;;;788381;74;26968;-72
2022/04/12 13:30:58;;;;;;;3.13;2.80;;;;;;;;;;789144;75;26465;-72
2022/04/12 13:32:02;;;;;;;2.80;2.60;;;;;;;;;;787540;75;26957;-72
2022/04/12 13:33:06;;;;;;;3.00;2.70;;;;;;;;;;791840;74;26396;-73
2022/04/12 13:34:14;;;;;;;2.67;2.47;;;;;;;;;;778026;74;26913;-72
2022/04/12 13:44:12;;;;;;;3.10;2.90;;;;;;;;;;787739;72;26164;-72
2022/04/12 13:49:20;;;;;;;7.28;3.00;;;;;;;;;;741981;78;26286;-73
2022/04/12 13:50:23;;;;;;;3.25;2.98;;;;;;;;;;747518;79;26330;-73
2022/04/12 13:51:26;;;;;;;3.10;2.72;;;;;;;;;;764076;77;26247;-72
2022/04/12 13:52:29;;;;;;;3.00;2.70;;;;;;;;;;764894;77;26232;-72
2022/04/12 13:53:32;;;;;;;2.70;2.40;;;;;;;;;;763974;77;26224;-72
2022/04/12 13:54:35;;;;;;;3.75;2.70;;;;;;;;;;764683;77;26224;-72
2022/04/12 13:57:24;;;;;;;2.75;2.55;;;;;;;;;;759020;77;26198;-74
2022/04/12 13:58:27;;;;;;;3.77;2.70;;;;;;;;;;760093;77;26264;-73
2022/04/12 13:59:30;;;;;;;4.00;2.92;;;;;;;;;;762775;76;26249;-72
2022/04/12 14:00:33;;;;;;;4.90;2.87;;;;;;;;;;760655;77;26275;-73
2022/04/12 14:01:36;;;;;;;2.90;2.65;;;;;;;;;;755431;77;26322;-73
2022/04/12 14:02:39;;;;;;;3.42;3.15;;;;;;;;;;753119;78;26268;-72
2022/04/12 14:03:42;;;;;;;2.65;2.42;;;;;;;;;;751569;78;26814;-72
2022/04/12 14:04:45;;;;;;;2.90;2.80;;;;;;;;;;749914;78;26307;-73
2022/04/12 14:18:50;;;;;;;5.35;3.20;;;;;;;;;;784833;75;26520;-71
2022/04/12 14:19:54;;;;;;;2.80;2.60;;;;;;;;;;789084;74;26326;-73
2022/04/12 14:21:00;;;;;;;3.05;2.85;;;;;;;;;;789440;73;26643;-73
2022/04/12 14:22:04;;;;;;;3.05;2.85;;;;;;;;;;783860;75;26213;-72
2022/04/12 14:23:16;;;;;;;3.30;3.10;;;;;;;;;;782769;73;26241;-71
2022/04/12 14:24:20;;;;;;;2.90;2.70;;;;;;;;;;778178;74;26320;-72
2022/04/12 14:27:35;;;;;;;3.25;2.95;;;;;;;;;;755402;78;26690;-72
2022/04/12 14:28:39;;;;;;;2.70;2.50;;;;;;;;;;752746;78;26260;-73
2022/04/12 14:29:42;;;;;;;3.77;2.70;;;;;;;;;;753594;79;26345;-73
2022/04/12 14:30:45;;;;;;;2.83;2.62;;;;;;;;;;740918;78;26722;-72
2022/04/12 14:31:51;;;;;;;3.10;2.90;;;;;;;;;;749608;78;26412;-73
2022/04/12 14:32:56;;;;;;;3.00;2.80;;;;;;;;;;749884;78;26257;-73
2022/04/12 14:34:00;;;;;;;3.08;2.87;;;;;;;;;;751659;79;26246;-72
2022/04/12 14:38:23;;;;;;;2.80;2.60;;;;;;;;;;730776;79;26370;-73
2022/04/12 14:39:24;;;;;;;2.95;2.75;;;;;;;;;;724495;78;26305;-73
2022/04/12 14:40:37;;;;;;;2.83;2.60;;;;;;;;;;737608;77;26337;-72
2022/04/12 14:41:42;;;;;;;2.87;2.67;;;;;;;;;;760334;77;26847;-72
2022/04/12 14:42:49;;;;;;;3.30;2.77;;;;;;;;;;747348;78;26687;-73
2022/04/12 14:43:53;;;;;;;3.05;2.60;;;;;;;;;;751814;76;26260;-72
2022/04/12 14:48:24;;;;;;;3.20;2.90;;;;;;;;;;776066;75;26192;-71
2022/04/12 14:49:31;;;;;;;2.65;2.55;;;;;;;;;;777088;75;26252;-71
2022/04/12 14:50:38;;;;;;;3.10;2.90;;;;;;;;;;778231;74;26317;-73
2022/04/12 14:51:41;;;;;;;3.05;2.75;;;;;;;;;;775177;75;26884;-72
2022/04/12 14:52:46;;;;;;;3.35;2.85;;;;;;;;;;773082;75;26299;-72